sensor_id;sensor_type;location;lat;lon;timestamp;pressure;altitude;pressure_sealevel;temperature;humidity
77047;BME280;65977;56.380;44.022;2022-12-18T00:00:44;100822.00;;;0.34;59.10
77047;BME280;65977;56.380;44.022;2022-12-18T00:03:13;100817.66;;;0.34;59.37
77047;BME280;65977;56.380;44.022;2022-12-18T00:05:48;100822.84;;;0.34;59.41
77047;BME280;65977;56.380;44.022;2022-12-18T00:08:14;100807.25;;;0.34;59.61
77047;BME280;65977;56.380;44.022;2022-12-18T00:10:40;100789.06;;;0.34;59.14
77047;BME280;65977;56.380;44.022;2022-12-18T00:13:05;100783.94;;;0.33;59.50
77047;BME280;65977;56.380;44.022;2022-12-18T00:15:34;100786.59;;;0.31;59.83
77047;BME280;65977;56.380;44.022;2022-12-18T00:18:00;100786.47;;;0.34;59.50
77047;BME280;65977;56.380;44.022;2022-12-18T00:20:25;100779.56;;;0.33;60.00
77047;BME280;65977;56.380;44.022;2022-12-18T00:22:54;100764.72;;;0.37;59.46
77047;BME280;65977;56.380;44.022;2022-12-18T00:25:20;100759.44;;;0.38;59.01
77047;BME280;65977;56.380;44.022;2022-12-18T00:27:46;100750.66;;;0.41;58.79
77047;BME280;65977;56.380;44.022;2022-12-18T00:30:12;100738.47;;;0.43;59.30
77047;BME280;65977;56.380;44.022;2022-12-18T00:32:37;100734.97;;;0.44;59.22
77047;BME280;65977;56.380;44.022;2022-12-18T00:35:04;100730.59;;;0.44;59.22
77047;BME280;65977;56.380;44.022;2022-12-18T00:37:30;100721.97;;;0.44;59.64
77047;BME280;65977;56.380;44.022;2022-12-18T00:39:56;100714.03;;;0.47;59.22
77047;BME280;65977;56.380;44.022;2022-12-18T00:42:21;100704.41;;;0.49;59.32
77047;BME280;65977;56.380;44.022;2022-12-18T00:45:06;100681.03;;;0.49;59.00
77047;BME280;65977;56.380;44.022;2022-12-18T00:47:32;100677.53;;;0.50;59.28
77047;BME280;65977;56.380;44.022;2022-12-18T00:49:57;100676.53;;;0.52;59.06
77047;BME280;65977;56.380;44.022;2022-12-18T00:52:23;100665.38;;;0.50;59.37
77047;BME280;65977;56.380;44.022;2022-12-18T00:54:48;100659.19;;;0.53;58.98
77047;BME280;65977;56.380;44.022;2022-12-18T00:57:14;100653.16;;;0.52;58.99
77047;BME280;65977;56.380;44.022;2022-12-18T00:59:39;100640.84;;;0.56;58.99
77047;BME280;65977;56.380;44.022;2022-12-18T01:02:05;100618.31;;;0.56;58.84
77047;BME280;65977;56.380;44.022;2022-12-18T01:04:32;100609.59;;;0.57;59.17
77047;BME280;65977;56.380;44.022;2022-12-18T01:06:58;100605.19;;;0.59;58.86
77047;BME280;65977;56.380;44.022;2022-12-18T01:09:24;100587.81;;;0.60;59.05
77047;BME280;65977;56.380;44.022;2022-12-18T01:11:49;100584.38;;;0.59;59.15
77047;BME280;65977;56.380;44.022;2022-12-18T01:14:15;100576.44;;;0.62;58.48
77047;BME280;65977;56.380;44.022;2022-12-18T01:16:41;100568.66;;;0.62;58.78
77047;BME280;65977;56.380;44.022;2022-12-18T01:19:07;100556.53;;;0.61;58.87
77047;BME280;65977;56.380;44.022;2022-12-18T01:21:32;100560.06;;;0.60;58.91
77047;BME280;65977;56.380;44.022;2022-12-18T01:23:58;100552.19;;;0.62;59.00
77047;BME280;65977;56.380;44.022;2022-12-18T01:26:24;100546.94;;;0.63;58.75
77047;BME280;65977;56.380;44.022;2022-12-18T01:28:50;100549.47;;;0.65;59.04
77047;BME280;65977;56.380;44.022;2022-12-18T01:31:22;100535.63;;;0.64;58.74
77047;BME280;65977;56.380;44.022;2022-12-18T01:33:49;100541.59;;;0.67;59.28
77047;BME280;65977;56.380;44.022;2022-12-18T01:36:21;100528.53;;;0.68;58.59
77047;BME280;65977;56.380;44.022;2022-12-18T01:38:47;100535.41;;;0.69;58.60
77047;BME280;65977;56.380;44.022;2022-12-18T01:41:15;100537.09;;;0.70;58.88
77047;BME280;65977;56.380;44.022;2022-12-18T01:43:46;100533.72;;;0.68;58.50
77047;BME280;65977;56.380;44.022;2022-12-18T01:46:13;100538.00;;;0.69;58.78
77047;BME280;65977;56.380;44.022;2022-12-18T01:48:39;100532.03;;;0.67;58.50
77047;BME280;65977;56.380;44.022;2022-12-18T01:51:08;100524.94;;;0.71;58.33
77047;BME280;65977;56.380;44.022;2022-12-18T01:53:36;100514.59;;;0.69;58.78
77047;BME280;65977;56.380;44.022;2022-12-18T01:56:01;100490.22;;;0.72;58.61
77047;BME280;65977;56.380;44.022;2022-12-18T01:58:38;100478.91;;;0.73;58.64
77047;BME280;65977;56.380;44.022;2022-12-18T02:01:05;100466.00;;;0.71;58.32
77047;BME280;65977;56.380;44.022;2022-12-18T02:03:30;100446.00;;;0.72;59.00
77047;BME280;65977;56.380;44.022;2022-12-18T02:08:37;100434.78;;;0.71;58.79
77047;BME280;65977;56.380;44.022;2022-12-18T02:14:14;100402.03;;;0.67;59.26
77047;BME280;65977;56.380;44.022;2022-12-18T02:19:55;100406.31;;;0.68;58.77
77047;BME280;65977;56.380;44.022;2022-12-18T02:27:49;100394.97;;;0.69;59.65
77047;BME280;65977;56.380;44.022;2022-12-18T02:30:17;100406.25;;;0.70;59.09
77047;BME280;65977;56.380;44.022;2022-12-18T02:32:50;100413.97;;;0.71;59.63
77047;BME280;65977;56.380;44.022;2022-12-18T02:35:25;100409.53;;;0.73;59.62
77047;BME280;65977;56.380;44.022;2022-12-18T02:37:54;100401.59;;;0.76;59.03
77047;BME280;65977;56.380;44.022;2022-12-18T02:40:22;100378.97;;;0.78;59.11
77047;BME280;65977;56.380;44.022;2022-12-18T02:42:48;100357.16;;;0.81;58.79
77047;BME280;65977;56.380;44.022;2022-12-18T02:45:14;100333.69;;;0.82;58.55
77047;BME280;65977;56.380;44.022;2022-12-18T02:47:42;100324.13;;;0.83;58.96
77047;BME280;65977;56.380;44.022;2022-12-18T02:50:18;100297.97;;;0.86;58.94
77047;BME280;65977;56.380;44.022;2022-12-18T02:58:20;100244.84;;;0.90;58.59
77047;BME280;65977;56.380;44.022;2022-12-18T03:01:05;100230.00;;;0.92;58.72
77047;BME280;65977;56.380;44.022;2022-12-18T03:03:40;100190.94;;;0.93;58.67
77047;BME280;65977;56.380;44.022;2022-12-18T03:06:14;100180.53;;;0.93;59.20
77047;BME280;65977;56.380;44.022;2022-12-18T03:08:46;100179.69;;;0.93;58.92
77047;BME280;65977;56.380;44.022;2022-12-18T03:11:14;100170.78;;;0.97;59.09
77047;BME280;65977;56.380;44.022;2022-12-18T03:13:52;100155.97;;;0.99;59.28
77047;BME280;65977;56.380;44.022;2022-12-18T03:16:27;100134.91;;;1.03;59.57
77047;BME280;65977;56.380;44.022;2022-12-18T03:19:16;100114.84;;;1.05;58.69
77047;BME280;65977;56.380;44.022;2022-12-18T03:21:46;100106.13;;;1.06;59.36
77047;BME280;65977;56.380;44.022;2022-12-18T03:24:14;100103.34;;;1.09;58.68
77047;BME280;65977;56.380;44.022;2022-12-18T03:26:44;100096.31;;;1.11;59.06
77047;BME280;65977;56.380;44.022;2022-12-18T03:29:22;100101.31;;;1.14;59.52
77047;BME280;65977;56.380;44.022;2022-12-18T03:31:54;100097.66;;;1.18;58.88
77047;BME280;65977;56.380;44.022;2022-12-18T03:34:34;100092.34;;;1.20;59.00
77047;BME280;65977;56.380;44.022;2022-12-18T03:37:01;100108.75;;;1.22;59.73
77047;BME280;65977;56.380;44.022;2022-12-18T03:39:29;100120.75;;;1.24;59.16
77047;BME280;65977;56.380;44.022;2022-12-18T03:42:06;100149.13;;;1.29;58.45
77047;BME280;65977;56.380;44.022;2022-12-18T03:47:40;100135.84;;;1.34;58.74
77047;BME280;65977;56.380;44.022;2022-12-18T03:50:22;100135.00;;;1.33;58.07
77047;BME280;65977;56.380;44.022;2022-12-18T03:53:13;100133.16;;;1.35;59.83
77047;BME280;65977;56.380;44.022;2022-12-18T03:55:40;100120.06;;;1.37;59.41
77047;BME280;65977;56.380;44.022;2022-12-18T03:58:07;100101.75;;;1.38;58.51
77047;BME280;65977;56.380;44.022;2022-12-18T04:00:35;100086.88;;;1.40;58.90
77047;BME280;65977;56.380;44.022;2022-12-18T04:03:01;100070.44;;;1.40;59.64
77047;BME280;65977;56.380;44.022;2022-12-18T04:05:30;100067.66;;;1.43;58.34
77047;BME280;65977;56.380;44.022;2022-12-18T04:07:57;100074.56;;;1.44;59.28
77047;BME280;65977;56.380;44.022;2022-12-18T04:10:23;100068.34;;;1.46;58.69
77047;BME280;65977;56.380;44.022;2022-12-18T04:12:49;100074.44;;;1.45;58.43
77047;BME280;65977;56.380;44.022;2022-12-18T04:15:14;100068.34;;;1.46;59.69
77047;BME280;65977;56.380;44.022;2022-12-18T04:17:47;100073.38;;;1.49;58.38
77047;BME280;65977;56.380;44.022;2022-12-18T04:20:13;100066.31;;;1.51;58.88
77047;BME280;65977;56.380;44.022;2022-12-18T04:22:39;100065.47;;;1.51;59.11
77047;BME280;65977;56.380;44.022;2022-12-18T04:25:05;100053.13;;;1.54;58.55
77047;BME280;65977;56.380;44.022;2022-12-18T04:27:31;100061.59;;;1.58;58.76
77047;BME280;65977;56.380;44.022;2022-12-18T04:29:56;100051.94;;;1.60;58.13
77047;BME280;65977;56.380;44.022;2022-12-18T04:32:22;100048.50;;;1.59;58.01
77047;BME280;65977;56.380;44.022;2022-12-18T04:34:47;100043.19;;;1.61;58.06
77047;BME280;65977;56.380;44.022;2022-12-18T04:37:13;100039.75;;;1.60;58.14
77047;BME280;65977;56.380;44.022;2022-12-18T04:39:39;100030.00;;;1.64;58.25
77047;BME280;65977;56.380;44.022;2022-12-18T04:42:05;100022.09;;;1.65;58.31
77047;BME280;65977;56.380;44.022;2022-12-18T04:44:30;100015.13;;;1.66;57.82
77047;BME280;65977;56.380;44.022;2022-12-18T04:46:56;100011.59;;;1.67;57.54
77047;BME280;65977;56.380;44.022;2022-12-18T04:49:22;100011.59;;;1.67;57.92
77047;BME280;65977;56.380;44.022;2022-12-18T04:51:47;100004.63;;;1.67;57.93
77047;BME280;65977;56.380;44.022;2022-12-18T04:54:13;100008.81;;;1.70;57.69
77047;BME280;65977;56.380;44.022;2022-12-18T04:56:39;100005.38;;;1.69;57.58
77047;BME280;65977;56.380;44.022;2022-12-18T04:59:05;100007.88;;;1.71;58.26
77047;BME280;65977;56.380;44.022;2022-12-18T05:01:33;100002.50;;;1.74;58.19
77047;BME280;65977;56.380;44.022;2022-12-18T05:03:59;99993.03;;;1.73;58.69
77047;BME280;65977;56.380;44.022;2022-12-18T05:06:24;99983.34;;;1.75;58.91
77047;BME280;65977;56.380;44.022;2022-12-18T05:08:50;99976.56;;;1.72;59.04
77047;BME280;65977;56.380;44.022;2022-12-18T05:11:16;99980.56;;;1.78;58.45
77047;BME280;65977;56.380;44.022;2022-12-18T05:13:42;99974.41;;;1.79;58.91
77047;BME280;65977;56.380;44.022;2022-12-18T05:16:08;99974.41;;;1.79;58.57
77047;BME280;65977;56.380;44.022;2022-12-18T05:18:34;99962.13;;;1.81;58.35
77047;BME280;65977;56.380;44.022;2022-12-18T05:21:00;99963.81;;;1.82;58.47
77047;BME280;65977;56.380;44.022;2022-12-18T05:23:26;99962.97;;;1.81;58.35
77047;BME280;65977;56.380;44.022;2022-12-18T05:25:56;99959.34;;;1.84;57.48
77047;BME280;65977;56.380;44.022;2022-12-18T05:28:23;99956.75;;;1.84;58.56
77047;BME280;65977;56.380;44.022;2022-12-18T05:30:51;99959.28;;;1.85;57.47
77047;BME280;65977;56.380;44.022;2022-12-18T05:33:21;99955.84;;;1.85;57.47
77047;BME280;65977;56.380;44.022;2022-12-18T05:35:51;99946.16;;;1.87;57.97
77047;BME280;65977;56.380;44.022;2022-12-18T05:38:18;99937.44;;;1.88;58.71
77047;BME280;65977;56.380;44.022;2022-12-18T05:40:44;99934.03;;;1.86;57.92
77047;BME280;65977;56.380;44.022;2022-12-18T05:43:10;99931.38;;;1.87;57.67
77047;BME280;65977;56.380;44.022;2022-12-18T05:45:39;99920.09;;;1.87;57.83
77047;BME280;65977;56.380;44.022;2022-12-18T05:48:06;99923.56;;;1.87;58.42
77047;BME280;65977;56.380;44.022;2022-12-18T05:50:36;99919.19;;;1.88;58.78
77047;BME280;65977;56.380;44.022;2022-12-18T05:53:03;99918.25;;;1.89;58.39
77047;BME280;65977;56.380;44.022;2022-12-18T05:55:29;99913.03;;;1.89;58.77
77047;BME280;65977;56.380;44.022;2022-12-18T05:57:54;99913.88;;;1.89;58.24
77047;BME280;65977;56.380;44.022;2022-12-18T06:00:20;99920.78;;;1.90;58.26
77047;BME280;65977;56.380;44.022;2022-12-18T06:02:48;99914.63;;;1.91;59.22
77047;BME280;65977;56.380;44.022;2022-12-18T06:05:14;99918.06;;;1.92;57.44
77047;BME280;65977;56.380;44.022;2022-12-18T06:07:39;99905.97;;;1.91;57.75
77047;BME280;65977;56.380;44.022;2022-12-18T06:10:06;99918.16;;;1.90;58.00
77047;BME280;65977;56.380;44.022;2022-12-18T06:12:32;99914.63;;;1.91;58.02
77047;BME280;65977;56.380;44.022;2022-12-18T06:14:59;99896.38;;;1.91;57.98
77047;BME280;65977;56.380;44.022;2022-12-18T06:17:29;99891.16;;;1.91;58.35
77047;BME280;65977;56.380;44.022;2022-12-18T06:19:55;99897.03;;;1.95;57.84
77047;BME280;65977;56.380;44.022;2022-12-18T06:22:20;99893.50;;;1.96;57.29
77047;BME280;65977;56.380;44.022;2022-12-18T06:24:46;99885.66;;;1.96;57.81
77047;BME280;65977;56.380;44.022;2022-12-18T06:27:12;99896.94;;;1.97;57.74
77047;BME280;65977;56.380;44.022;2022-12-18T06:29:38;99901.22;;;1.98;57.25
77047;BME280;65977;56.380;44.022;2022-12-18T06:32:03;99905.41;;;2.00;57.57
77047;BME280;65977;56.380;44.022;2022-12-18T06:34:29;99898.50;;;1.99;57.19
77047;BME280;65977;56.380;44.022;2022-12-18T06:36:58;99894.88;;;2.02;57.01
77047;BME280;65977;56.380;44.022;2022-12-18T06:39:24;99887.91;;;2.02;56.99
77047;BME280;65977;56.380;44.022;2022-12-18T06:41:50;99880.00;;;2.04;56.78
77047;BME280;65977;56.380;44.022;2022-12-18T06:44:15;99877.31;;;2.05;57.23
77047;BME280;65977;56.380;44.022;2022-12-18T06:46:41;99866.03;;;2.05;57.65
77047;BME280;65977;56.380;44.022;2022-12-18T06:49:07;99859.91;;;2.06;56.78
77047;BME280;65977;56.380;44.022;2022-12-18T06:51:34;99859.69;;;2.09;57.42
77047;BME280;65977;56.380;44.022;2022-12-18T06:54:00;99854.41;;;2.10;57.90
77047;BME280;65977;56.380;44.022;2022-12-18T06:56:25;99851.88;;;2.09;58.09
77047;BME280;65977;56.380;44.022;2022-12-18T06:58:52;99843.81;;;2.13;57.88
77047;BME280;65977;56.380;44.022;2022-12-18T07:01:18;99830.78;;;2.13;57.79
77047;BME280;65977;56.380;44.022;2022-12-18T07:03:44;99834.13;;;2.15;57.40
77047;BME280;65977;56.380;44.022;2022-12-18T07:06:18;99822.75;;;2.16;57.72
77047;BME280;65977;56.380;44.022;2022-12-18T07:08:45;99822.66;;;2.18;57.98
77047;BME280;65977;56.380;44.022;2022-12-18T07:11:11;99829.53;;;2.19;57.71
77047;BME280;65977;56.380;44.022;2022-12-18T07:13:36;99818.19;;;2.20;57.52
77047;BME280;65977;56.380;44.022;2022-12-18T07:16:16;99820.91;;;2.18;57.23
77047;BME280;65977;56.380;44.022;2022-12-18T07:18:42;99809.63;;;2.18;56.67
77047;BME280;65977;56.380;44.022;2022-12-18T07:21:11;99814.84;;;2.18;56.22
77047;BME280;65977;56.380;44.022;2022-12-18T07:23:37;99807.94;;;2.17;57.92
77047;BME280;65977;56.380;44.022;2022-12-18T07:26:05;99804.41;;;2.18;56.79
77047;BME280;65977;56.380;44.022;2022-12-18T07:28:33;99817.25;;;2.21;57.38
77047;BME280;65977;56.380;44.022;2022-12-18T07:31:03;99806.91;;;2.19;56.38
77047;BME280;65977;56.380;44.022;2022-12-18T07:33:29;99801.88;;;2.16;56.72
77047;BME280;65977;56.380;44.022;2022-12-18T07:35:55;99795.75;;;2.17;56.48
77047;BME280;65977;56.380;44.022;2022-12-18T07:38:21;99794.91;;;2.17;56.81
77047;BME280;65977;56.380;44.022;2022-12-18T07:40:46;99791.47;;;2.16;56.51
77047;BME280;65977;56.380;44.022;2022-12-18T07:43:12;99797.63;;;2.15;56.37
77047;BME280;65977;56.380;44.022;2022-12-18T07:45:37;99807.94;;;2.17;56.21
77047;BME280;65977;56.380;44.022;2022-12-18T07:48:04;99793.34;;;2.14;56.02
77047;BME280;65977;56.380;44.022;2022-12-18T07:50:29;99789.81;;;2.15;55.72
77047;BME280;65977;56.380;44.022;2022-12-18T07:52:55;99788.13;;;2.14;55.72
77047;BME280;65977;56.380;44.022;2022-12-18T07:55:20;99790.84;;;2.13;55.79
77047;BME280;65977;56.380;44.022;2022-12-18T07:57:46;99775.28;;;2.11;56.94
77047;BME280;65977;56.380;44.022;2022-12-18T08:00:12;99777.69;;;2.14;56.90
77047;BME280;65977;56.380;44.022;2022-12-18T08:02:38;99769.81;;;2.16;57.61
77047;BME280;65977;56.380;44.022;2022-12-18T08:05:04;99757.59;;;2.16;56.53
77047;BME280;65977;56.380;44.022;2022-12-18T08:07:30;99757.59;;;2.16;56.30
77047;BME280;65977;56.380;44.022;2022-12-18T08:09:56;99763.63;;;2.17;56.49
77047;BME280;65977;56.380;44.022;2022-12-18T08:12:21;99765.13;;;2.21;56.66
77047;BME280;65977;56.380;44.022;2022-12-18T08:14:47;99756.38;;;2.22;57.48
77047;BME280;65977;56.380;44.022;2022-12-18T08:17:12;99760.53;;;2.24;57.66
77047;BME280;65977;56.380;44.022;2022-12-18T08:19:38;99763.81;;;2.28;56.56
77047;BME280;65977;56.380;44.022;2022-12-18T08:22:04;99756.91;;;2.27;57.88
77047;BME280;65977;56.380;44.022;2022-12-18T08:24:29;99769.44;;;2.34;57.39
77047;BME280;65977;56.380;44.022;2022-12-18T08:26:55;99760.69;;;2.35;58.58
77047;BME280;65977;56.380;44.022;2022-12-18T08:29:22;99760.59;;;2.37;56.33
77047;BME280;65977;56.380;44.022;2022-12-18T08:31:48;99766.66;;;2.37;56.06
77047;BME280;65977;56.380;44.022;2022-12-18T08:34:14;99766.66;;;2.37;55.87
77047;BME280;65977;56.380;44.022;2022-12-18T08:36:40;99768.41;;;2.37;55.38
77047;BME280;65977;56.380;44.022;2022-12-18T08:39:05;99764.88;;;2.38;55.92
77047;BME280;65977;56.380;44.022;2022-12-18T08:41:31;99772.59;;;2.39;55.54
77047;BME280;65977;56.380;44.022;2022-12-18T08:43:56;99777.91;;;2.38;55.92
77047;BME280;65977;56.380;44.022;2022-12-18T08:46:42;99787.31;;;2.40;55.84
77047;BME280;65977;56.380;44.022;2022-12-18T08:49:09;99795.97;;;2.41;55.60
77047;BME280;65977;56.380;44.022;2022-12-18T08:51:36;99797.63;;;2.42;55.60
77047;BME280;65977;56.380;44.022;2022-12-18T08:54:02;99781.97;;;2.42;55.83
77047;BME280;65977;56.380;44.022;2022-12-18T08:56:28;99784.50;;;2.43;55.89
77047;BME280;65977;56.380;44.022;2022-12-18T08:58:55;99787.13;;;2.43;56.22
77047;BME280;65977;56.380;44.022;2022-12-18T09:01:22;99780.13;;;2.44;55.93
77047;BME280;65977;56.380;44.022;2022-12-18T09:03:49;99779.28;;;2.43;55.89
77047;BME280;65977;56.380;44.022;2022-12-18T09:06:16;99776.50;;;2.46;55.94
77047;BME280;65977;56.380;44.022;2022-12-18T09:08:43;99776.38;;;2.48;56.25
77047;BME280;65977;56.380;44.022;2022-12-18T09:11:15;99773.59;;;2.51;56.22
77047;BME280;65977;56.380;44.022;2022-12-18T09:13:43;99768.38;;;2.51;56.71
77047;BME280;65977;56.380;44.022;2022-12-18T09:16:09;99779.53;;;2.53;56.05
77047;BME280;65977;56.380;44.022;2022-12-18T09:18:35;99776.00;;;2.54;56.86
77047;BME280;65977;56.380;44.022;2022-12-18T09:21:14;99776.81;;;2.54;57.06
77047;BME280;65977;56.380;44.022;2022-12-18T09:23:40;99773.28;;;2.55;56.78
77047;BME280;65977;56.380;44.022;2022-12-18T09:26:06;99775.78;;;2.57;56.09
77047;BME280;65977;56.380;44.022;2022-12-18T09:28:32;99768.91;;;2.56;55.54
77047;BME280;65977;56.380;44.022;2022-12-18T09:30:58;99781.94;;;2.56;55.26
77047;BME280;65977;56.380;44.022;2022-12-18T09:33:24;99780.91;;;2.59;56.04
77047;BME280;65977;56.380;44.022;2022-12-18T09:35:50;99780.78;;;2.60;56.27
77047;BME280;65977;56.380;44.022;2022-12-18T09:38:17;99791.16;;;2.62;56.23
77047;BME280;65977;56.380;44.022;2022-12-18T09:43:28;99782.47;;;2.61;55.45
77047;BME280;65977;56.380;44.022;2022-12-18T09:45:59;99779.88;;;2.61;55.38
77047;BME280;65977;56.380;44.022;2022-12-18T09:48:34;99780.59;;;2.63;54.84
77047;BME280;65977;56.380;44.022;2022-12-18T09:51:15;99777.25;;;2.61;55.12
77047;BME280;65977;56.380;44.022;2022-12-18T09:53:47;99783.94;;;2.65;54.98
77047;BME280;65977;56.380;44.022;2022-12-18T09:56:18;99776.03;;;2.67;55.05
77047;BME280;65977;56.380;44.022;2022-12-18T09:59:01;99791.56;;;2.68;56.00
77047;BME280;65977;56.380;44.022;2022-12-18T10:01:28;99779.44;;;2.67;55.22
77047;BME280;65977;56.380;44.022;2022-12-18T10:03:55;99781.25;;;2.67;54.75
77047;BME280;65977;56.380;44.022;2022-12-18T10:06:30;99786.34;;;2.68;54.81
77047;BME280;65977;56.380;44.022;2022-12-18T10:11:57;99782.91;;;2.68;54.04
77047;BME280;65977;56.380;44.022;2022-12-18T10:14:29;99790.84;;;2.66;53.79
77047;BME280;65977;56.380;44.022;2022-12-18T10:25:28;99796.97;;;2.65;53.71
77047;BME280;65977;56.380;44.022;2022-12-18T10:28:06;99803.97;;;2.65;53.55
77047;BME280;65977;56.380;44.022;2022-12-18T10:30:32;99802.38;;;2.62;52.97
77047;BME280;65977;56.380;44.022;2022-12-18T10:33:02;99806.88;;;2.60;53.26
77047;BME280;65977;56.380;44.022;2022-12-18T10:35:28;99806.88;;;2.60;53.09
77047;BME280;65977;56.380;44.022;2022-12-18T10:38:01;99816.47;;;2.60;53.13
77047;BME280;65977;56.380;44.022;2022-12-18T10:40:27;99816.47;;;2.60;53.09
77047;BME280;65977;56.380;44.022;2022-12-18T10:43:11;99826.91;;;2.60;52.92
77047;BME280;65977;56.380;44.022;2022-12-18T10:45:37;99831.31;;;2.59;52.78
77047;BME280;65977;56.380;44.022;2022-12-18T10:48:03;99828.69;;;2.59;52.95
77047;BME280;65977;56.380;44.022;2022-12-18T10:50:33;99828.69;;;2.59;52.34
77047;BME280;65977;56.380;44.022;2022-12-18T10:53:01;99833.25;;;2.55;52.45
77047;BME280;65977;56.380;44.022;2022-12-18T10:55:33;99831.56;;;2.54;52.27
77047;BME280;65977;56.380;44.022;2022-12-18T10:58:30;99837.63;;;2.55;52.62
77047;BME280;65977;56.380;44.022;2022-12-18T11:01:12;99850.78;;;2.53;53.24
77047;BME280;65977;56.380;44.022;2022-12-18T11:06:22;99849.19;;;2.51;52.67
77047;BME280;65977;56.380;44.022;2022-12-18T11:09:05;99848.25;;;2.52;52.87
77047;BME280;65977;56.380;44.022;2022-12-18T11:11:32;99836.25;;;2.49;52.81
77047;BME280;65977;56.380;44.022;2022-12-18T11:14:19;99846.69;;;2.49;52.80
77047;BME280;65977;56.380;44.022;2022-12-18T11:16:47;99838.84;;;2.49;52.16
77047;BME280;65977;56.380;44.022;2022-12-18T11:21:54;99831.44;;;2.43;52.72
77047;BME280;65977;56.380;44.022;2022-12-18T11:24:34;99857.59;;;2.42;51.74
77047;BME280;65977;56.380;44.022;2022-12-18T11:27:04;99862.91;;;2.40;51.61
77047;BME280;65977;56.380;44.022;2022-12-18T11:29:39;99856.13;;;2.38;51.59
77047;BME280;65977;56.380;44.022;2022-12-18T11:34:53;99858.06;;;2.34;51.63
77047;BME280;65977;56.380;44.022;2022-12-18T11:37:20;99883.41;;;2.32;52.55
77047;BME280;65977;56.380;44.022;2022-12-18T11:40:03;99893.09;;;2.30;52.28
77047;BME280;65977;56.380;44.022;2022-12-18T11:47:56;99888.19;;;2.26;51.69
77047;BME280;65977;56.380;44.022;2022-12-18T11:50:31;99891.72;;;2.25;51.93
77047;BME280;65977;56.380;44.022;2022-12-18T11:52:59;99906.59;;;2.23;51.50
77047;BME280;65977;56.380;44.022;2022-12-18T11:55:54;99907.47;;;2.23;51.46
77047;BME280;65977;56.380;44.022;2022-12-18T11:58:26;99909.28;;;2.21;51.62
77047;BME280;65977;56.380;44.022;2022-12-18T12:06:45;99934.78;;;2.16;50.96
77047;BME280;65977;56.380;44.022;2022-12-18T12:09:25;99934.78;;;2.16;51.36
77047;BME280;65977;56.380;44.022;2022-12-18T12:17:52;99949.81;;;2.13;51.02
77047;BME280;65977;56.380;44.022;2022-12-18T12:20:46;99957.69;;;2.11;51.29
77047;BME280;65977;56.380;44.022;2022-12-18T12:23:31;99966.53;;;2.09;52.14
77047;BME280;65977;56.380;44.022;2022-12-18T12:26:24;99971.00;;;2.07;51.40
77047;BME280;65977;56.380;44.022;2022-12-18T12:29:05;99975.38;;;2.06;52.22
77047;BME280;65977;56.380;44.022;2022-12-18T12:31:51;99979.78;;;2.06;52.40
77047;BME280;65977;56.380;44.022;2022-12-18T12:39:47;100002.28;;;2.07;53.25
77047;BME280;65977;56.380;44.022;2022-12-18T12:42:38;100003.22;;;2.06;53.59
77047;BME280;65977;56.380;44.022;2022-12-18T12:45:53;100009.47;;;2.03;53.35
77047;BME280;65977;56.380;44.022;2022-12-18T12:50:49;100033.81;;;2.02;53.62
77047;BME280;65977;56.380;44.022;2022-12-18T12:53:31;100055.59;;;2.01;54.04
77047;BME280;65977;56.380;44.022;2022-12-18T12:55:58;100054.84;;;1.99;53.55
77047;BME280;65977;56.380;44.022;2022-12-18T12:58:36;100058.41;;;1.98;53.57
77047;BME280;65977;56.380;44.022;2022-12-18T13:01:18;100067.13;;;1.97;52.77
77047;BME280;65977;56.380;44.022;2022-12-18T13:09:08;100071.94;;;1.89;53.05
77047;BME280;65977;56.380;44.022;2022-12-18T13:14:28;100079.75;;;1.89;54.01
77047;BME280;65977;56.380;44.022;2022-12-18T13:17:27;100082.47;;;1.87;53.51
77047;BME280;65977;56.380;44.022;2022-12-18T13:20:11;100088.59;;;1.86;53.18
77047;BME280;65977;56.380;44.022;2022-12-18T13:22:43;100104.38;;;1.83;52.90
77047;BME280;65977;56.380;44.022;2022-12-18T13:25:36;100116.75;;;1.80;53.27
77047;BME280;65977;56.380;44.022;2022-12-18T13:28:06;100116.00;;;1.78;52.25
77047;BME280;65977;56.380;44.022;2022-12-18T13:48:26;100138.03;;;1.72;53.84
77047;BME280;65977;56.380;44.022;2022-12-18T13:50:59;100141.47;;;1.73;52.21
77047;BME280;65977;56.380;44.022;2022-12-18T13:53:29;100146.69;;;1.73;52.60
77047;BME280;65977;56.380;44.022;2022-12-18T13:55:56;100150.19;;;1.72;53.54
77047;BME280;65977;56.380;44.022;2022-12-18T13:58:22;100152.81;;;1.72;52.75
77047;BME280;65977;56.380;44.022;2022-12-18T14:00:47;100159.88;;;1.70;52.55
77047;BME280;65977;56.380;44.022;2022-12-18T14:03:25;100166.16;;;1.66;52.78
77047;BME280;65977;56.380;44.022;2022-12-18T14:06:01;100180.19;;;1.63;52.33
77047;BME280;65977;56.380;44.022;2022-12-18T14:08:33;100181.28;;;1.59;51.91
77047;BME280;65977;56.380;44.022;2022-12-18T14:11:01;100172.97;;;1.53;51.23
77047;BME280;65977;56.380;44.022;2022-12-18T14:13:30;100179.28;;;1.49;51.63
77047;BME280;65977;56.380;44.022;2022-12-18T14:15:57;100194.97;;;1.47;53.53
77047;BME280;65977;56.380;44.022;2022-12-18T14:21:06;100215.72;;;1.49;52.40
77047;BME280;65977;56.380;44.022;2022-12-18T14:23:42;100217.56;;;1.47;51.97
77047;BME280;65977;56.380;44.022;2022-12-18T14:26:25;100220.16;;;1.47;52.31
77047;BME280;65977;56.380;44.022;2022-12-18T14:28:53;100226.28;;;1.46;53.01
77047;BME280;65977;56.380;44.022;2022-12-18T14:31:30;100228.03;;;1.45;52.86
77047;BME280;65977;56.380;44.022;2022-12-18T14:33:56;100233.25;;;1.45;52.40
77047;BME280;65977;56.380;44.022;2022-12-18T14:36:29;100231.44;;;1.47;53.05
77047;BME280;65977;56.380;44.022;2022-12-18T14:38:56;100234.34;;;1.41;51.59
77047;BME280;65977;56.380;44.022;2022-12-18T14:41:24;100234.34;;;1.41;51.99
77047;BME280;65977;56.380;44.022;2022-12-18T14:43:52;100237.97;;;1.39;53.38
77047;BME280;65977;56.380;44.022;2022-12-18T14:46:34;100242.25;;;1.40;53.15